B21HL VMMC-ZSHC
Flight info
| Callsign | B21HL |
|---|---|
| Flight time | 1h 45m |
| Altitude | 39000 |
| Route | NUDPI V601 DOTMI/K0856S1190 A470 UGAGO UGAGO52 |
| Aircraft | E190/M-SDE1E2E3FGHIJ3J4J7P2RWXY/LB1D1G1 |
Departure
| Time | 2026-05-05 08:40 |
|---|---|
| Airport | Macau International Airport (VMMC) |
Arrival
| Time | 2026-05-05 10:25 |
|---|---|
| Airport | Hangzhou Xiaoshan International Airport (ZSHC) |
| Time | Latitude | Longitude | Altitude | Speed | Heading |
|---|---|---|---|---|---|
| 2026-05-05 08:16 | 22.15526 | 113.57183 | 27 ft | 0 kts | 333° |
| 2026-05-05 08:27 | 22.15517 | 113.57188 | 27 ft | 2 kts | 332° |
| 2026-05-05 08:28 | 22.15503 | 113.57193 | 27 ft | 2 kts | 13° |
| 2026-05-05 08:28 | 22.15491 | 113.57185 | 27 ft | 0 kts | 57° |
| 2026-05-05 08:28 | 22.15489 | 113.57179 | 27 ft | 1 kts | 66° |
| 2026-05-05 08:28 | 22.15488 | 113.57176 | 27 ft | 0 kts | 63° |
| 2026-05-05 08:33 | 22.15490 | 113.57182 | 27 ft | 1 kts | 63° |
| 2026-05-05 08:33 | 22.15497 | 113.57197 | 27 ft | 3 kts | 62° |
| 2026-05-05 08:33 | 22.15513 | 113.57227 | 27 ft | 5 kts | 61° |
| 2026-05-05 08:34 | 22.15497 | 113.57263 | 27 ft | 6 kts | 148° |
| 2026-05-05 08:34 | 22.15474 | 113.57299 | 27 ft | 6 kts | 64° |
| 2026-05-05 08:34 | 22.15508 | 113.57367 | 27 ft | 15 kts | 62° |
| 2026-05-05 08:34 | 22.15563 | 113.57476 | 27 ft | 17 kts | 60° |
| 2026-05-05 08:35 | 22.15618 | 113.57584 | 27 ft | 15 kts | 104° |
| 2026-05-05 08:35 | 22.15558 | 113.57690 | 27 ft | 20 kts | 123° |
| 2026-05-05 08:35 | 22.15467 | 113.57841 | 27 ft | 24 kts | 120° |
| 2026-05-05 08:35 | 22.15373 | 113.57997 | 27 ft | 25 kts | 123° |
| 2026-05-05 08:36 | 22.15271 | 113.58157 | 27 ft | 26 kts | 123° |
| 2026-05-05 08:36 | 22.15169 | 113.58326 | 27 ft | 27 kts | 126° |
| 2026-05-05 08:36 | 22.15061 | 113.58497 | 27 ft | 28 kts | 121° |
| 2026-05-05 08:36 | 22.14950 | 113.58675 | 27 ft | 28 kts | 124° |
| 2026-05-05 08:37 | 22.14838 | 113.58855 | 27 ft | 28 kts | 126° |
| 2026-05-05 08:37 | 22.14730 | 113.59029 | 27 ft | 17 kts | 142° |
| 2026-05-05 08:37 | 22.14645 | 113.59064 | 27 ft | 12 kts | 160° |
| 2026-05-05 08:37 | 22.14555 | 113.59096 | 27 ft | 15 kts | 162° |
| 2026-05-05 08:38 | 22.14424 | 113.59142 | 27 ft | 22 kts | 161° |
| 2026-05-05 08:38 | 22.14273 | 113.59199 | 27 ft | 24 kts | 160° |
| 2026-05-05 08:38 | 22.14095 | 113.59264 | 27 ft | 28 kts | 161° |
| 2026-05-05 08:38 | 22.13907 | 113.59332 | 27 ft | 29 kts | 162° |
| 2026-05-05 08:39 | 22.13713 | 113.59405 | 27 ft | 27 kts | 159° |
| 2026-05-05 08:39 | 22.13650 | 113.59471 | 27 ft | 8 kts | 65° |
| 2026-05-05 08:39 | 22.13669 | 113.59534 | 27 ft | 9 kts | 73° |
| 2026-05-05 08:39 | 22.13694 | 113.59598 | 27 ft | 4 kts | 28° |
| 2026-05-05 08:40 | 22.13699 | 113.59597 | 27 ft | 0 kts | 337° |
| 2026-05-05 08:40 | 22.13942 | 113.59507 | 27 ft | 85 kts | 340° |
| 2026-05-05 08:40 | 22.14781 | 113.59196 | 87 ft | 159 kts | 342° |
| 2026-05-05 08:40 | 22.15899 | 113.58776 | 814 ft | 180 kts | 345° |
| 2026-05-05 08:41 | 22.17077 | 113.58702 | 1767 ft | 174 kts | 22° |
| 2026-05-05 08:41 | 22.18192 | 113.59359 | 2237 ft | 193 kts | 34° |
| 2026-05-05 08:41 | 22.19418 | 113.60093 | 2727 ft | 216 kts | 30° |
| 2026-05-05 08:41 | 22.20830 | 113.60847 | 3375 ft | 232 kts | 27° |
| 2026-05-05 08:42 | 22.22302 | 113.61579 | 4280 ft | 235 kts | 25° |
| 2026-05-05 08:42 | 22.23775 | 113.62284 | 5203 ft | 234 kts | 24° |
| 2026-05-05 08:42 | 22.25264 | 113.62982 | 6062 ft | 235 kts | 22° |
| 2026-05-05 08:42 | 22.26758 | 113.63674 | 6852 ft | 238 kts | 21° |
| 2026-05-05 08:43 | 22.28262 | 113.64436 | 7603 ft | 243 kts | 32° |
| 2026-05-05 08:43 | 22.29673 | 113.65601 | 7881 ft | 270 kts | 37° |
| 2026-05-05 08:43 | 22.31210 | 113.66929 | 8142 ft | 295 kts | 37° |
| 2026-05-05 08:43 | 22.32852 | 113.68346 | 8683 ft | 308 kts | 37° |
| 2026-05-05 08:44 | 22.34222 | 113.70149 | 9403 ft | 315 kts | 65° |
| 2026-05-05 08:44 | 22.34790 | 113.72401 | 10163 ft | 317 kts | 78° |
| 2026-05-05 08:44 | 22.35247 | 113.74746 | 10908 ft | 319 kts | 77° |
| 2026-05-05 08:44 | 22.35686 | 113.77007 | 11547 ft | 323 kts | 77° |
| 2026-05-05 08:45 | 22.36152 | 113.79404 | 12155 ft | 329 kts | 77° |
| 2026-05-05 08:45 | 22.36630 | 113.81858 | 12563 ft | 341 kts | 77° |
| 2026-05-05 08:45 | 22.37117 | 113.84396 | 12944 ft | 354 kts | 79° |
| 2026-05-05 08:45 | 22.37009 | 113.87079 | 13371 ft | 364 kts | 108° |
| 2026-05-05 08:46 | 22.35819 | 113.89455 | 13918 ft | 363 kts | 135° |
| 2026-05-05 08:46 | 22.33823 | 113.91061 | 14518 ft | 356 kts | 156° |
| 2026-05-05 08:46 | 22.31619 | 113.92356 | 15134 ft | 359 kts | 155° |
| 2026-05-05 08:46 | 22.29443 | 113.93686 | 15705 ft | 361 kts | 154° |
| 2026-05-05 08:47 | 22.27276 | 113.95033 | 15901 ft | 361 kts | 154° |
| 2026-05-05 08:47 | 22.25074 | 113.96407 | 15932 ft | 365 kts | 154° |
| 2026-05-05 08:47 | 22.22891 | 113.97850 | 15927 ft | 370 kts | 144° |
| 2026-05-05 08:47 | 22.21203 | 114.00002 | 15957 ft | 377 kts | 124° |
| 2026-05-05 08:48 | 22.19865 | 114.02409 | 15946 ft | 378 kts | 123° |
| 2026-05-05 08:48 | 22.18519 | 114.04845 | 15938 ft | 377 kts | 123° |
| 2026-05-05 08:48 | 22.17174 | 114.07279 | 15936 ft | 378 kts | 123° |
| 2026-05-05 08:48 | 22.15832 | 114.09705 | 15939 ft | 376 kts | 123° |
| 2026-05-05 08:49 | 22.14494 | 114.12124 | 15937 ft | 377 kts | 123° |
| 2026-05-05 08:49 | 22.13201 | 114.14624 | 16079 ft | 392 kts | 118° |
| 2026-05-05 08:49 | 22.11952 | 114.17270 | 16789 ft | 398 kts | 119° |
| 2026-05-05 08:49 | 22.10709 | 114.19897 | 17693 ft | 395 kts | 119° |
| 2026-05-05 08:50 | 22.09461 | 114.22528 | 18561 ft | 394 kts | 119° |
| 2026-05-05 08:50 | 22.08180 | 114.25146 | 19288 ft | 394 kts | 125° |
| 2026-05-05 08:50 | 22.06325 | 114.27269 | 19855 ft | 392 kts | 146° |
| 2026-05-05 08:50 | 22.04129 | 114.29021 | 20456 ft | 395 kts | 147° |
| 2026-05-05 08:51 | 22.01914 | 114.30771 | 21028 ft | 400 kts | 147° |
| 2026-05-05 08:51 | 21.99637 | 114.32568 | 21608 ft | 404 kts | 147° |
| 2026-05-05 08:51 | 21.97379 | 114.34347 | 22165 ft | 408 kts | 147° |
| 2026-05-05 08:51 | 21.95073 | 114.36165 | 22736 ft | 411 kts | 147° |
| 2026-05-05 08:52 | 21.92759 | 114.37988 | 23270 ft | 415 kts | 147° |
| 2026-05-05 08:52 | 21.90431 | 114.39821 | 23775 ft | 419 kts | 148° |
| 2026-05-05 08:52 | 21.88037 | 114.41724 | 24296 ft | 425 kts | 144° |
| 2026-05-05 08:52 | 21.86113 | 114.44155 | 24750 ft | 438 kts | 121° |
| 2026-05-05 08:53 | 21.85083 | 114.47254 | 25217 ft | 446 kts | 99° |
| 2026-05-05 08:53 | 21.85113 | 114.50588 | 25687 ft | 447 kts | 80° |
| 2026-05-05 08:53 | 21.85495 | 114.53908 | 26175 ft | 451 kts | 83° |
| 2026-05-05 08:53 | 21.85790 | 114.57281 | 26627 ft | 455 kts | 84° |
| 2026-05-05 08:54 | 21.86061 | 114.60693 | 27071 ft | 459 kts | 84° |
| 2026-05-05 08:54 | 21.86325 | 114.64135 | 27499 ft | 463 kts | 84° |
| 2026-05-05 08:54 | 21.86587 | 114.67574 | 27905 ft | 467 kts | 84° |
| 2026-05-05 08:54 | 21.86850 | 114.71047 | 28312 ft | 470 kts | 84° |
| 2026-05-05 08:55 | 21.87117 | 114.74585 | 28734 ft | 473 kts | 84° |
| 2026-05-05 08:55 | 21.87383 | 114.78119 | 29127 ft | 476 kts | 84° |
| 2026-05-05 08:55 | 21.87651 | 114.81686 | 29520 ft | 479 kts | 84° |
| 2026-05-05 08:55 | 21.87915 | 114.85231 | 29908 ft | 482 kts | 84° |
| 2026-05-05 08:56 | 21.88183 | 114.88818 | 30268 ft | 485 kts | 84° |
| 2026-05-05 08:56 | 21.88427 | 114.92446 | 30624 ft | 488 kts | 87° |
| 2026-05-05 08:56 | 21.88527 | 114.96083 | 30963 ft | 491 kts | 87° |
| 2026-05-05 08:56 | 21.88640 | 114.99765 | 31313 ft | 494 kts | 87° |
| 2026-05-05 08:57 | 21.88758 | 115.03505 | 31626 ft | 498 kts | 87° |
| 2026-05-05 08:57 | 21.88876 | 115.07226 | 31942 ft | 501 kts | 88° |
| 2026-05-05 08:57 | 21.88995 | 115.11026 | 32283 ft | 503 kts | 88° |
| 2026-05-05 08:57 | 21.89111 | 115.14761 | 32621 ft | 505 kts | 88° |
| 2026-05-05 08:58 | 21.89230 | 115.18583 | 32957 ft | 508 kts | 88° |
| 2026-05-05 08:58 | 21.89346 | 115.22371 | 33285 ft | 510 kts | 88° |
| 2026-05-05 08:58 | 21.89463 | 115.26182 | 33621 ft | 512 kts | 88° |
| 2026-05-05 08:58 | 21.89579 | 115.30017 | 33973 ft | 514 kts | 88° |
| 2026-05-05 08:59 | 21.89694 | 115.33856 | 34298 ft | 516 kts | 87° |
| 2026-05-05 08:59 | 21.89810 | 115.37729 | 34606 ft | 518 kts | 87° |
| 2026-05-05 08:59 | 21.89925 | 115.41625 | 34953 ft | 519 kts | 88° |
| 2026-05-05 08:59 | 21.90038 | 115.45485 | 35331 ft | 519 kts | 87° |
| 2026-05-05 09:00 | 21.90152 | 115.49385 | 35769 ft | 517 kts | 87° |
| 2026-05-05 09:00 | 21.90263 | 115.53236 | 36210 ft | 515 kts | 87° |
| 2026-05-05 09:00 | 21.90374 | 115.57106 | 36612 ft | 514 kts | 87° |
| 2026-05-05 09:00 | 21.90496 | 115.60952 | 36973 ft | 513 kts | 84° |
| 2026-05-05 09:01 | 21.90977 | 115.64749 | 37290 ft | 511 kts | 76° |
| 2026-05-05 09:01 | 21.91742 | 115.68447 | 37573 ft | 511 kts | 75° |
| 2026-05-05 09:01 | 21.92505 | 115.72182 | 37856 ft | 511 kts | 75° |
| 2026-05-05 09:01 | 21.93261 | 115.75899 | 38154 ft | 511 kts | 75° |
| 2026-05-05 09:02 | 21.94020 | 115.79645 | 38510 ft | 510 kts | 75° |
| 2026-05-05 09:02 | 21.94780 | 115.83402 | 38872 ft | 507 kts | 75° |
| 2026-05-05 09:02 | 21.95526 | 115.87094 | 38900 ft | 504 kts | 75° |
| 2026-05-05 09:03 | 21.97015 | 115.94470 | 38921 ft | 508 kts | 75° |
| 2026-05-05 09:03 | 21.98726 | 116.01840 | 38928 ft | 505 kts | 66° |
| 2026-05-05 09:04 | 22.02062 | 116.08390 | 38939 ft | 496 kts | 47° |
| 2026-05-05 09:04 | 22.06958 | 116.13439 | 38937 ft | 480 kts | 28° |
| 2026-05-05 09:05 | 22.12755 | 116.16967 | 38938 ft | 477 kts | 22° |
| 2026-05-05 09:05 | 22.18897 | 116.19386 | 38947 ft | 459 kts | 3° |
| 2026-05-05 09:06 | 22.25135 | 116.19544 | 38952 ft | 443 kts | 344° |
| 2026-05-05 09:06 | 22.31174 | 116.18291 | 38951 ft | 445 kts | 348° |
| 2026-05-05 09:07 | 22.37364 | 116.17969 | 38936 ft | 446 kts | 351° |
| 2026-05-05 09:07 | 22.43600 | 116.17756 | 39030 ft | 446 kts | 351° |
| 2026-05-05 09:08 | 22.49851 | 116.17551 | 39039 ft | 448 kts | 351° |
| 2026-05-05 09:08 | 22.56130 | 116.17347 | 39040 ft | 447 kts | 351° |
| 2026-05-05 09:09 | 22.62351 | 116.17144 | 39038 ft | 447 kts | 351° |
| 2026-05-05 09:09 | 22.68628 | 116.17248 | 39045 ft | 459 kts | 1° |
| 2026-05-05 09:10 | 22.74877 | 116.19308 | 39044 ft | 476 kts | 19° |
| 2026-05-05 09:10 | 22.80430 | 116.23402 | 39053 ft | 493 kts | 38° |
| 2026-05-05 09:11 | 22.85639 | 116.28231 | 39048 ft | 489 kts | 32° |
| 2026-05-05 09:11 | 22.91002 | 116.32720 | 39048 ft | 488 kts | 31° |
| 2026-05-05 09:12 | 22.96417 | 116.37216 | 39051 ft | 488 kts | 31° |
| 2026-05-05 09:12 | 23.01858 | 116.41707 | 39048 ft | 490 kts | 31° |
| 2026-05-05 09:13 | 23.07281 | 116.46188 | 39055 ft | 490 kts | 31° |
| 2026-05-05 09:13 | 23.12719 | 116.50687 | 39056 ft | 490 kts | 31° |
| 2026-05-05 09:14 | 23.18168 | 116.55199 | 39056 ft | 491 kts | 31° |
| 2026-05-05 09:14 | 23.23569 | 116.59677 | 39059 ft | 491 kts | 31° |
| 2026-05-05 09:15 | 23.29022 | 116.64203 | 39065 ft | 492 kts | 31° |
| 2026-05-05 09:15 | 23.34456 | 116.68717 | 39056 ft | 492 kts | 31° |
| 2026-05-05 09:16 | 23.39932 | 116.73270 | 39049 ft | 494 kts | 31° |
| 2026-05-05 09:16 | 23.45241 | 116.78050 | 39063 ft | 501 kts | 41° |
| 2026-05-05 09:17 | 23.50060 | 116.83521 | 39059 ft | 501 kts | 41° |
| 2026-05-05 09:17 | 23.54905 | 116.89020 | 39061 ft | 502 kts | 41° |
| 2026-05-05 09:18 | 23.59755 | 116.94530 | 39058 ft | 502 kts | 41° |
| 2026-05-05 09:18 | 23.64588 | 117.00026 | 39064 ft | 501 kts | 41° |
| 2026-05-05 09:19 | 23.69424 | 117.05532 | 39070 ft | 502 kts | 41° |
| 2026-05-05 09:19 | 23.74258 | 117.11041 | 39074 ft | 504 kts | 41° |
| 2026-05-05 09:20 | 23.79283 | 117.16373 | 39087 ft | 500 kts | 35° |
| 2026-05-05 09:20 | 23.84522 | 117.21427 | 39084 ft | 502 kts | 36° |
| 2026-05-05 09:21 | 23.89706 | 117.26489 | 39087 ft | 501 kts | 36° |
| 2026-05-05 09:21 | 23.94918 | 117.31583 | 39097 ft | 503 kts | 36° |
| 2026-05-05 09:22 | 24.00154 | 117.36710 | 39107 ft | 503 kts | 36° |
| 2026-05-05 09:22 | 24.05346 | 117.41798 | 39110 ft | 503 kts | 36° |
| 2026-05-05 09:23 | 24.10596 | 117.46949 | 39112 ft | 504 kts | 36° |
| 2026-05-05 09:23 | 24.15649 | 117.52296 | 39127 ft | 509 kts | 43° |
| 2026-05-05 09:24 | 24.20431 | 117.58038 | 39113 ft | 509 kts | 43° |
| 2026-05-05 09:24 | 24.25192 | 117.63750 | 39103 ft | 509 kts | 43° |
| 2026-05-05 09:25 | 24.29987 | 117.69511 | 39092 ft | 510 kts | 43° |
| 2026-05-05 09:25 | 24.34759 | 117.75251 | 39088 ft | 510 kts | 43° |
| 2026-05-05 09:26 | 24.39529 | 117.80994 | 39090 ft | 510 kts | 43° |
| 2026-05-05 09:26 | 24.44321 | 117.86772 | 39100 ft | 511 kts | 43° |
| 2026-05-05 09:27 | 24.49115 | 117.92560 | 39097 ft | 512 kts | 43° |
| 2026-05-05 09:27 | 24.53905 | 117.98349 | 39109 ft | 513 kts | 43° |
| 2026-05-05 09:28 | 24.58760 | 118.04062 | 39115 ft | 512 kts | 41° |
| 2026-05-05 09:28 | 24.63749 | 118.09714 | 39111 ft | 512 kts | 41° |
| 2026-05-05 09:29 | 24.68702 | 118.15342 | 39121 ft | 513 kts | 41° |
| 2026-05-05 09:29 | 24.73656 | 118.20982 | 39115 ft | 513 kts | 41° |
| 2026-05-05 09:30 | 24.78615 | 118.26637 | 39109 ft | 513 kts | 40° |
| 2026-05-05 09:30 | 24.83591 | 118.32319 | 39119 ft | 513 kts | 41° |
| 2026-05-05 09:31 | 24.88576 | 118.38017 | 39123 ft | 517 kts | 41° |
| 2026-05-05 09:31 | 24.93567 | 118.43729 | 39109 ft | 517 kts | 41° |
| 2026-05-05 09:32 | 24.98528 | 118.49415 | 39122 ft | 517 kts | 41° |
| 2026-05-05 09:32 | 25.03523 | 118.55146 | 39126 ft | 519 kts | 41° |
| 2026-05-05 09:33 | 25.08518 | 118.60885 | 39129 ft | 517 kts | 41° |
| 2026-05-05 09:33 | 25.13417 | 118.66740 | 39114 ft | 519 kts | 43° |
| 2026-05-05 09:34 | 25.18321 | 118.72656 | 39115 ft | 522 kts | 43° |
| 2026-05-05 09:34 | 25.23206 | 118.78558 | 39119 ft | 520 kts | 43° |
| 2026-05-05 09:35 | 25.28096 | 118.84470 | 39128 ft | 523 kts | 43° |
| 2026-05-05 09:35 | 25.35464 | 118.93346 | 39129 ft | 523 kts | 42° |
| 2026-05-05 09:36 | 25.40480 | 118.99186 | 39129 ft | 522 kts | 42° |
| 2026-05-05 09:36 | 25.45463 | 119.05007 | 39138 ft | 521 kts | 42° |
| 2026-05-05 09:37 | 25.50453 | 119.10844 | 39132 ft | 523 kts | 42° |
| 2026-05-05 09:37 | 25.55441 | 119.16685 | 39136 ft | 523 kts | 42° |
| 2026-05-05 09:38 | 25.60465 | 119.22577 | 39135 ft | 524 kts | 42° |
| 2026-05-05 09:38 | 25.65454 | 119.28436 | 39136 ft | 524 kts | 42° |
| 2026-05-05 09:39 | 25.70481 | 119.34284 | 39131 ft | 521 kts | 38° |
| 2026-05-05 09:39 | 25.76307 | 119.38890 | 39139 ft | 506 kts | 21° |
| 2026-05-05 09:40 | 25.82775 | 119.41557 | 39146 ft | 490 kts | 7° |
| 2026-05-05 09:40 | 25.89324 | 119.43700 | 39142 ft | 493 kts | 8° |
| 2026-05-05 09:41 | 25.95932 | 119.45942 | 39146 ft | 494 kts | 8° |
| 2026-05-05 09:41 | 26.02528 | 119.48186 | 39147 ft | 493 kts | 8° |
| 2026-05-05 09:42 | 26.09129 | 119.50436 | 39152 ft | 493 kts | 8° |
| 2026-05-05 09:42 | 26.15710 | 119.52681 | 39142 ft | 493 kts | 8° |
| 2026-05-05 09:43 | 26.22333 | 119.54634 | 39146 ft | 482 kts | 358° |
| 2026-05-05 09:43 | 26.28916 | 119.54921 | 39150 ft | 472 kts | 351° |
| 2026-05-05 09:44 | 26.35502 | 119.54991 | 39149 ft | 472 kts | 351° |
| 2026-05-05 09:44 | 26.42076 | 119.55050 | 39151 ft | 470 kts | 351° |
| 2026-05-05 09:45 | 26.48641 | 119.55090 | 39150 ft | 471 kts | 351° |
| 2026-05-05 09:45 | 26.55204 | 119.55133 | 39154 ft | 470 kts | 351° |
| 2026-05-05 09:46 | 26.61791 | 119.55173 | 39155 ft | 472 kts | 351° |
| 2026-05-05 09:46 | 26.68345 | 119.55216 | 39156 ft | 470 kts | 351° |
| 2026-05-05 09:47 | 26.74915 | 119.55257 | 39155 ft | 473 kts | 351° |
| 2026-05-05 09:47 | 26.81501 | 119.55299 | 39160 ft | 471 kts | 351° |
| 2026-05-05 09:48 | 26.88109 | 119.55341 | 39156 ft | 472 kts | 351° |
| 2026-05-05 09:48 | 26.94672 | 119.55383 | 39158 ft | 473 kts | 351° |
| 2026-05-05 09:49 | 27.01254 | 119.55424 | 39161 ft | 471 kts | 351° |
| 2026-05-05 09:49 | 27.07868 | 119.55467 | 39166 ft | 472 kts | 351° |
| 2026-05-05 09:50 | 27.14432 | 119.55509 | 39158 ft | 472 kts | 351° |
| 2026-05-05 09:50 | 27.21030 | 119.55551 | 39158 ft | 471 kts | 351° |
| 2026-05-05 09:51 | 27.27608 | 119.55587 | 39156 ft | 473 kts | 351° |
| 2026-05-05 09:51 | 27.34205 | 119.55596 | 39161 ft | 472 kts | 351° |
| 2026-05-05 09:52 | 27.40780 | 119.55608 | 39163 ft | 471 kts | 351° |
| 2026-05-05 09:52 | 27.47360 | 119.55633 | 39164 ft | 473 kts | 351° |
| 2026-05-05 09:53 | 27.53960 | 119.55671 | 39161 ft | 472 kts | 351° |
| 2026-05-05 09:53 | 27.60574 | 119.55708 | 39160 ft | 474 kts | 351° |
| 2026-05-05 09:54 | 27.67147 | 119.55746 | 39149 ft | 472 kts | 352° |
| 2026-05-05 09:54 | 27.73767 | 119.55784 | 39150 ft | 474 kts | 351° |
| 2026-05-05 09:55 | 27.80348 | 119.55822 | 39143 ft | 472 kts | 351° |
| 2026-05-05 09:55 | 27.86956 | 119.55859 | 39146 ft | 473 kts | 352° |
| 2026-05-05 09:56 | 27.93556 | 119.55907 | 39146 ft | 473 kts | 352° |
| 2026-05-05 09:56 | 28.00174 | 119.56013 | 39150 ft | 472 kts | 352° |
| 2026-05-05 09:57 | 28.06770 | 119.56114 | 39152 ft | 473 kts | 352° |
| 2026-05-05 09:57 | 28.13396 | 119.56336 | 39137 ft | 475 kts | 354° |
| 2026-05-05 09:58 | 28.19955 | 119.56709 | 39114 ft | 465 kts | 354° |
| 2026-05-05 09:58 | 28.26321 | 119.57059 | 39118 ft | 455 kts | 354° |
| 2026-05-05 09:59 | 28.32745 | 119.57413 | 38588 ft | 464 kts | 354° |
| 2026-05-05 09:59 | 28.35986 | 119.57594 | 38085 ft | 463 kts | 354° |
| 2026-05-05 09:59 | 28.39214 | 119.57773 | 37608 ft | 463 kts | 354° |
| 2026-05-05 10:00 | 28.42442 | 119.57952 | 37096 ft | 463 kts | 354° |
| 2026-05-05 10:00 | 28.45631 | 119.58129 | 36587 ft | 462 kts | 354° |
| 2026-05-05 10:00 | 28.48873 | 119.58327 | 36069 ft | 463 kts | 354° |
| 2026-05-05 10:00 | 28.52107 | 119.58527 | 35554 ft | 462 kts | 354° |
| 2026-05-05 10:01 | 28.55305 | 119.58724 | 35050 ft | 464 kts | 354° |
| 2026-05-05 10:01 | 28.58560 | 119.58925 | 34531 ft | 463 kts | 354° |
| 2026-05-05 10:01 | 28.61785 | 119.59123 | 34020 ft | 466 kts | 354° |
| 2026-05-05 10:01 | 28.64993 | 119.59322 | 33515 ft | 466 kts | 354° |
| 2026-05-05 10:02 | 28.68231 | 119.59522 | 33002 ft | 468 kts | 354° |
| 2026-05-05 10:02 | 28.71512 | 119.59725 | 32510 ft | 470 kts | 355° |
| 2026-05-05 10:02 | 28.74787 | 119.59928 | 32000 ft | 470 kts | 355° |
| 2026-05-05 10:02 | 28.78045 | 119.60130 | 31471 ft | 468 kts | 355° |
| 2026-05-05 10:03 | 28.81328 | 119.60333 | 30938 ft | 467 kts | 356° |
| 2026-05-05 10:03 | 28.84577 | 119.60535 | 30407 ft | 466 kts | 356° |
| 2026-05-05 10:03 | 28.87804 | 119.60736 | 29878 ft | 460 kts | 356° |
| 2026-05-05 10:03 | 28.90991 | 119.60934 | 29351 ft | 456 kts | 356° |
| 2026-05-05 10:04 | 28.94140 | 119.61131 | 28824 ft | 450 kts | 356° |
| 2026-05-05 10:04 | 28.97229 | 119.61322 | 28327 ft | 446 kts | 357° |
| 2026-05-05 10:04 | 29.00335 | 119.61516 | 27830 ft | 442 kts | 357° |
| 2026-05-05 10:04 | 29.03417 | 119.61707 | 27330 ft | 438 kts | 357° |
| 2026-05-05 10:05 | 29.06439 | 119.61896 | 26852 ft | 433 kts | 357° |
| 2026-05-05 10:05 | 29.09430 | 119.62081 | 26374 ft | 428 kts | 357° |
| 2026-05-05 10:05 | 29.12383 | 119.62260 | 25898 ft | 425 kts | 357° |
| 2026-05-05 10:05 | 29.15330 | 119.62440 | 25435 ft | 423 kts | 358° |
| 2026-05-05 10:06 | 29.18251 | 119.62618 | 24975 ft | 418 kts | 358° |
| 2026-05-05 10:06 | 29.21161 | 119.62796 | 24505 ft | 412 kts | 358° |
| 2026-05-05 10:06 | 29.23990 | 119.62968 | 24051 ft | 410 kts | 358° |
| 2026-05-05 10:06 | 29.26829 | 119.63142 | 23603 ft | 407 kts | 358° |
| 2026-05-05 10:07 | 29.29649 | 119.63314 | 23167 ft | 403 kts | 358° |
| 2026-05-05 10:07 | 29.32422 | 119.63483 | 22707 ft | 398 kts | 358° |
| 2026-05-05 10:07 | 29.35226 | 119.63655 | 22272 ft | 396 kts | 359° |
| 2026-05-05 10:07 | 29.37943 | 119.63821 | 21841 ft | 391 kts | 359° |
| 2026-05-05 10:08 | 29.40648 | 119.63987 | 21390 ft | 386 kts | 359° |
| 2026-05-05 10:08 | 29.43329 | 119.64152 | 20987 ft | 382 kts | 359° |
| 2026-05-05 10:08 | 29.45990 | 119.64314 | 20571 ft | 382 kts | 359° |
| 2026-05-05 10:08 | 29.48624 | 119.64476 | 20150 ft | 379 kts | 359° |
| 2026-05-05 10:09 | 29.51239 | 119.64637 | 19733 ft | 376 kts | 359° |
| 2026-05-05 10:09 | 29.53873 | 119.64799 | 19316 ft | 374 kts | 360° |
| 2026-05-05 10:09 | 29.56467 | 119.64901 | 18901 ft | 369 kts | 358° |
| 2026-05-05 10:09 | 29.59007 | 119.64964 | 18497 ft | 366 kts | 358° |
| 2026-05-05 10:10 | 29.61542 | 119.65026 | 18122 ft | 364 kts | 359° |
| 2026-05-05 10:10 | 29.64115 | 119.65147 | 17750 ft | 380 kts | 1° |
| 2026-05-05 10:10 | 29.66806 | 119.65336 | 17318 ft | 385 kts | 1° |
| 2026-05-05 10:10 | 29.69474 | 119.65522 | 16889 ft | 383 kts | 2° |
| 2026-05-05 10:11 | 29.72123 | 119.65707 | 16462 ft | 380 kts | 1° |
| 2026-05-05 10:11 | 29.74750 | 119.65890 | 16047 ft | 377 kts | 2° |
| 2026-05-05 10:11 | 29.77382 | 119.66053 | 15628 ft | 374 kts | 1° |
| 2026-05-05 10:11 | 29.79967 | 119.66187 | 15214 ft | 372 kts | 1° |
| 2026-05-05 10:12 | 29.82552 | 119.66318 | 14800 ft | 369 kts | 1° |
| 2026-05-05 10:12 | 29.85114 | 119.66544 | 14374 ft | 367 kts | 11° |
| 2026-05-05 10:12 | 29.87456 | 119.67630 | 14016 ft | 368 kts | 26° |
| 2026-05-05 10:12 | 29.89722 | 119.68998 | 13596 ft | 365 kts | 26° |
| 2026-05-05 10:13 | 29.91963 | 119.70353 | 13190 ft | 362 kts | 26° |
| 2026-05-05 10:13 | 29.94142 | 119.71671 | 12778 ft | 346 kts | 26° |
| 2026-05-05 10:13 | 29.96239 | 119.72940 | 12394 ft | 333 kts | 26° |
| 2026-05-05 10:13 | 29.98292 | 119.74183 | 12035 ft | 332 kts | 26° |
| 2026-05-05 10:14 | 30.00323 | 119.75412 | 11668 ft | 331 kts | 26° |
| 2026-05-05 10:14 | 30.02347 | 119.76653 | 11297 ft | 325 kts | 30° |
| 2026-05-05 10:14 | 30.03954 | 119.78459 | 10950 ft | 320 kts | 57° |
| 2026-05-05 10:14 | 30.05009 | 119.80669 | 10604 ft | 314 kts | 61° |
| 2026-05-05 10:15 | 30.06012 | 119.82872 | 10256 ft | 306 kts | 62° |
| 2026-05-05 10:15 | 30.06981 | 119.85011 | 9915 ft | 298 kts | 61° |
| 2026-05-05 10:15 | 30.07934 | 119.87125 | 9591 ft | 293 kts | 62° |
| 2026-05-05 10:15 | 30.08861 | 119.89181 | 9274 ft | 291 kts | 62° |
| 2026-05-05 10:16 | 30.09804 | 119.91276 | 8958 ft | 290 kts | 62° |
| 2026-05-05 10:16 | 30.10735 | 119.93346 | 8629 ft | 289 kts | 62° |
| 2026-05-05 10:16 | 30.11646 | 119.95372 | 8311 ft | 288 kts | 63° |
| 2026-05-05 10:16 | 30.12566 | 119.97421 | 8007 ft | 285 kts | 63° |
| 2026-05-05 10:17 | 30.13460 | 119.99422 | 7713 ft | 276 kts | 63° |
| 2026-05-05 10:17 | 30.14335 | 120.01383 | 7406 ft | 267 kts | 63° |
| 2026-05-05 10:17 | 30.15022 | 120.03318 | 7105 ft | 258 kts | 84° |
| 2026-05-05 10:17 | 30.14717 | 120.05271 | 6890 ft | 244 kts | 121° |
| 2026-05-05 10:18 | 30.13544 | 120.06634 | 6479 ft | 241 kts | 147° |
| 2026-05-05 10:18 | 30.12148 | 120.07631 | 6239 ft | 230 kts | 150° |
| 2026-05-05 10:18 | 30.10960 | 120.08797 | 5896 ft | 224 kts | 121° |
| 2026-05-05 10:18 | 30.10700 | 120.10503 | 5619 ft | 220 kts | 81° |
| 2026-05-05 10:19 | 30.11223 | 120.12137 | 5320 ft | 215 kts | 68° |
| 2026-05-05 10:19 | 30.11833 | 120.13670 | 5087 ft | 206 kts | 66° |
| 2026-05-05 10:19 | 30.12434 | 120.15136 | 4847 ft | 198 kts | 67° |
| 2026-05-05 10:19 | 30.13018 | 120.16545 | 4598 ft | 193 kts | 66° |
| 2026-05-05 10:20 | 30.13617 | 120.17941 | 4334 ft | 192 kts | 65° |
| 2026-05-05 10:20 | 30.14218 | 120.19312 | 4084 ft | 193 kts | 65° |
| 2026-05-05 10:20 | 30.14821 | 120.20674 | 3885 ft | 188 kts | 65° |
| 2026-05-05 10:20 | 30.15424 | 120.22029 | 3630 ft | 191 kts | 65° |
| 2026-05-05 10:21 | 30.16028 | 120.23383 | 3342 ft | 183 kts | 65° |
| 2026-05-05 10:21 | 30.16589 | 120.24635 | 3067 ft | 171 kts | 66° |
| 2026-05-05 10:21 | 30.17127 | 120.25840 | 2835 ft | 168 kts | 66° |
| 2026-05-05 10:21 | 30.17663 | 120.27041 | 2614 ft | 168 kts | 65° |
| 2026-05-05 10:22 | 30.18202 | 120.28248 | 2389 ft | 167 kts | 65° |
| 2026-05-05 10:22 | 30.18737 | 120.29445 | 2160 ft | 167 kts | 66° |
| 2026-05-05 10:22 | 30.19268 | 120.30636 | 1931 ft | 166 kts | 66° |
| 2026-05-05 10:22 | 30.19800 | 120.31827 | 1702 ft | 162 kts | 66° |
| 2026-05-05 10:23 | 30.20286 | 120.32913 | 1477 ft | 145 kts | 66° |
| 2026-05-05 10:23 | 30.20720 | 120.33884 | 1280 ft | 130 kts | 66° |
| 2026-05-05 10:23 | 30.21117 | 120.34777 | 1123 ft | 122 kts | 66° |
| 2026-05-05 10:23 | 30.21509 | 120.35658 | 988 ft | 123 kts | 66° |
| 2026-05-05 10:24 | 30.21895 | 120.36523 | 847 ft | 123 kts | 66° |
| 2026-05-05 10:24 | 30.22301 | 120.37404 | 698 ft | 124 kts | 64° |
| 2026-05-05 10:24 | 30.22714 | 120.38274 | 537 ft | 121 kts | 65° |
| 2026-05-05 10:24 | 30.23080 | 120.39142 | 382 ft | 121 kts | 68° |
| 2026-05-05 10:25 | 30.23461 | 120.40014 | 228 ft | 120 kts | 63° |
| 2026-05-05 10:25 | 30.23842 | 120.40874 | 75 ft | 119 kts | 65° |
| 2026-05-05 10:25 | 30.24202 | 120.41690 | 28 ft | 105 kts | 64° |
| 2026-05-05 10:25 | 30.24441 | 120.42234 | 28 ft | 41 kts | 63° |
| 2026-05-05 10:26 | 30.24551 | 120.42539 | 28 ft | 38 kts | 84° |
| 2026-05-05 10:26 | 30.24557 | 120.42735 | 28 ft | 12 kts | 94° |
| 2026-05-05 10:26 | 30.24530 | 120.42770 | 28 ft | 5 kts | 146° |
| 2026-05-05 10:26 | 30.24485 | 120.42764 | 28 ft | 9 kts | 225° |
| 2026-05-05 10:27 | 30.24451 | 120.42692 | 28 ft | 12 kts | 244° |
| 2026-05-05 10:27 | 30.24380 | 120.42529 | 28 ft | 29 kts | 242° |
| 2026-05-05 10:27 | 30.24291 | 120.42323 | 28 ft | 27 kts | 243° |
| 2026-05-05 10:27 | 30.24209 | 120.42139 | 28 ft | 25 kts | 244° |
| 2026-05-05 10:28 | 30.24126 | 120.41948 | 28 ft | 27 kts | 240° |
| 2026-05-05 10:28 | 30.24036 | 120.41753 | 28 ft | 25 kts | 243° |
| 2026-05-05 10:28 | 30.23965 | 120.41590 | 28 ft | 24 kts | 243° |
| 2026-05-05 10:28 | 30.23895 | 120.41431 | 28 ft | 22 kts | 242° |
| 2026-05-05 10:29 | 30.23830 | 120.41302 | 28 ft | 21 kts | 212° |
| 2026-05-05 10:29 | 30.23686 | 120.41359 | 28 ft | 21 kts | 154° |
| 2026-05-05 10:29 | 30.23587 | 120.41415 | 28 ft | 19 kts | 161° |
| 2026-05-05 10:29 | 30.23546 | 120.41396 | 28 ft | 4 kts | 214° |
| 2026-05-05 10:30 | 30.23512 | 120.41397 | 28 ft | 5 kts | 155° |
| 2026-05-05 10:30 | 30.23494 | 120.41408 | 28 ft | 0 kts | 153° |
| 2026-05-05 10:30 | 30.23487 | 120.41412 | 28 ft | 0 kts | 152° |